Time;durP1;ratioP1;P1;durP2;ratioP2;P2;SDS_P1;SDS_P2;PMS_P1;PMS_P2;Temp;Humidity;BMP_temperature;BMP_pressure;BME280_temperature;BME280_humidity;BME280_pressure;Samples;Min_cycle;Max_cycle;Signal;HPM_P1;HPM_P2
2023/12/20 00:01:12;;;;;;;7.70;4.60;;;;;;;5.97;100.00;100615.13;5074287;28;20059;-75
2023/12/20 00:04:15;;;;;;;3.42;1.88;;;;;;;5.91;100.00;100613.53;5074201;28;20043;-76
2023/12/20 00:07:19;;;;;;;5.53;2.85;;;;;;;5.90;100.00;100601.44;5074110;28;20062;-76
2023/12/20 00:10:22;;;;;;;;;;;;;;;5.82;100.00;100601.69;5074446;28;20042;-76
2023/12/20 00:13:25;;;;;;;5.97;3.57;;;;;;;5.90;100.00;100600.59;5074025;28;20335;-76
2023/12/20 00:16:28;;;;;;;6.82;4.20;;;;;;;6.01;100.00;100608.94;5074027;28;20127;-76
2023/12/20 00:19:32;;;;;;;5.68;2.65;;;;;;;5.98;100.00;100601.25;5073954;28;20043;-76
2023/12/20 00:22:35;;;;;;;6.05;3.00;;;;;;;6.03;100.00;100604.53;5073974;28;20120;-76
2023/12/20 00:25:38;;;;;;;6.78;3.10;;;;;;;5.90;100.00;100601.44;5073790;28;20554;-75
2023/12/20 00:28:42;;;;;;;8.57;3.40;;;;;;;5.98;100.00;100599.50;5073672;28;20047;-75
2023/12/20 00:31:45;;;;;;;5.60;2.30;;;;;;;5.97;100.00;100591.78;5073988;28;20066;-76
2023/12/20 00:34:49;;;;;;;4.28;1.45;;;;;;;5.99;100.00;100592.56;5073682;28;20555;-75
2023/12/20 00:37:52;;;;;;;7.47;3.25;;;;;;;6.09;100.00;100596.53;5073459;28;20052;-77
2023/12/20 00:40:55;;;;;;;5.20;2.53;;;;;;;6.14;100.00;100592.06;5073449;28;20103;-76
2023/12/20 00:43:59;;;;;;;4.32;2.10;;;;;;;6.24;100.00;100590.84;5072566;28;20087;-76
2023/12/20 00:47:02;;;;;;;;;;;;;;;6.06;100.00;100586.25;5073523;28;20048;-76
2023/12/20 00:50:06;;;;;;;4.13;2.10;;;;;;;6.11;100.00;100581.78;5072470;28;19923;-76
2023/12/20 00:53:09;;;;;;;5.80;2.25;;;;;;;6.15;100.00;100578.19;5072613;28;20520;-76
2023/12/20 00:56:12;;;;;;;;;;;;;;;6.20;100.00;100571.09;5073863;28;20137;-76
2023/12/20 00:59:17;;;;;;;2.13;1.10;;;;;;;6.24;100.00;100572.69;5073214;28;19918;-76
2023/12/20 01:02:20;;;;;;;4.22;1.58;;;;;;;6.25;100.00;100571.81;5073192;28;20087;-76
2023/12/20 01:05:24;;;;;;;2.22;0.95;;;;;;;6.19;100.00;100572.00;5073083;28;20433;-76
2023/12/20 01:08:27;;;;;;;3.25;0.85;;;;;;;6.19;100.00;100571.13;5073018;28;20044;-76
2023/12/20 01:11:30;;;;;;;;;;;;;;;6.21;100.00;100574.53;5073401;28;20051;-76
2023/12/20 01:14:33;;;;;;;1.30;0.40;;;;;;;6.14;100.00;100571.28;5073000;28;19923;-76
2023/12/20 01:17:36;;;;;;;;;;;;;;;6.17;100.00;100578.97;5073356;28;20116;-76
2023/12/20 01:20:39;;;;;;;2.57;0.60;;;;;;;6.11;100.00;100581.78;5072147;28;20499;-76
2023/12/20 01:23:42;;;;;;;;;;;;;;;6.12;100.00;100570.50;5073319;28;20047;-76
2023/12/20 01:26:45;;;;;;;2.25;0.40;;;;;;;6.09;100.00;100575.78;5072778;28;19920;-76
2023/12/20 01:29:48;;;;;;;;;;;;;;;6.11;100.00;100588.72;5073507;28;20456;-76
2023/12/20 01:32:52;;;;;;;2.97;0.50;;;;;;;6.02;100.00;100584.69;5072648;28;19942;-76
2023/12/20 01:35:55;;;;;;;;;;;;;;;6.02;100.00;100580.31;5073170;28;20039;-76
2023/12/20 01:38:58;;;;;;;1.25;0.43;;;;;;;6.01;100.00;100578.63;5072632;28;19918;-76
2023/12/20 01:42:02;;;;;;;1.60;0.60;;;;;;;6.07;100.00;100556.84;5072689;28;20055;-76
2023/12/20 01:45:05;;;;;;;1.67;0.52;;;;;;;5.87;100.00;100553.97;5072594;28;20043;-76
2023/12/20 01:48:09;;;;;;;1.10;0.40;;;;;;;5.99;100.00;100564.84;5072273;28;20413;-76
2023/12/20 01:51:13;;;;;;;2.45;0.30;;;;;;;5.97;100.00;100560.63;5072607;28;20101;-76
2023/12/20 01:54:19;;;;;;;1.20;0.30;;;;;;;5.91;100.00;100566.00;5075008;28;20566;-76
2023/12/20 01:57:22;;;;;;;1.30;0.30;;;;;;;5.89;100.00;100571.22;5076871;28;20047;-76
2023/12/20 02:00:27;;;;;;;;;;;;;;;5.97;100.00;100577.06;5077027;28;20517;-76
2023/12/20 02:03:30;;;;;;;0.85;0.30;;;;;;;5.90;100.00;100572.06;5076573;28;20419;-76
2023/12/20 02:06:34;;;;;;;3.65;0.57;;;;;;;5.94;100.00;100563.31;5076513;28;20051;-76
2023/12/20 02:09:38;;;;;;;3.03;0.57;;;;;;;5.81;100.00;100563.69;5076304;28;20038;-76
2023/12/20 02:12:41;;;;;;;0.82;0.25;;;;;;;5.82;100.00;100564.53;5076420;28;20047;-76
2023/12/20 02:15:44;;;;;;;4.05;0.45;;;;;;;5.81;100.00;100563.69;5076390;28;20044;-76
2023/12/20 02:18:47;;;;;;;1.52;0.50;;;;;;;5.85;100.00;100555.81;5076312;28;20139;-76
2023/12/20 02:22:12;;;;;;;1.65;0.65;;;;;;;5.75;100.00;100563.88;5076203;28;20094;-76
2023/12/20 02:25:15;;;;;;;2.13;0.45;;;;;;;5.72;100.00;100574.34;5076102;28;20480;-76
2023/12/20 02:28:19;;;;;;;;;;;;;;;5.69;100.00;100579.63;5076458;28;20039;-76
2023/12/20 02:31:23;;;;;;;1.35;0.50;;;;;;;5.59;100.00;100586.00;5076123;28;20439;-76
2023/12/20 02:34:26;;;;;;;1.70;0.50;;;;;;;5.64;100.00;100593.63;5075893;28;20040;-76
2023/12/20 02:37:29;;;;;;;;;;;;;;;5.69;100.00;100592.59;5076299;28;20066;-75
2023/12/20 02:40:33;;;;;;;1.38;0.52;;;;;;;5.74;100.00;100589.84;5075833;28;19919;-76
2023/12/20 02:43:36;;;;;;;1.08;0.47;;;;;;;5.72;100.00;100595.09;5074933;28;20043;-76
2023/12/20 02:46:39;;;;;;;3.00;0.50;;;;;;;5.76;100.00;100588.06;5075571;28;20055;-76
2023/12/20 02:49:43;;;;;;;0.98;0.30;;;;;;;5.74;100.00;100595.03;5075648;28;20040;-76
2023/12/20 02:52:46;;;;;;;1.25;0.50;;;;;;;5.71;100.00;100583.03;5075663;28;20047;-76
2023/12/20 02:55:49;;;;;;;0.98;0.40;;;;;;;5.68;100.00;100596.09;5075458;28;20077;-76
2023/12/20 02:58:53;;;;;;;;;;;;;;;5.70;100.00;100594.28;5076176;28;20047;-75
2023/12/20 03:01:55;;;;;;;2.00;0.40;;;;;;;5.72;100.00;100586.47;5075462;28;19918;-76
2023/12/20 03:05:00;;;;;;;1.30;0.35;;;;;;;5.80;100.00;100598.28;5074701;28;20051;-76
2023/12/20 03:08:03;;;;;;;4.10;3.08;;;;;;;5.73;100.00;100604.56;5075300;28;20039;-76
2023/12/20 03:11:06;;;;;;;2.38;1.13;;;;;;;5.89;100.00;100614.47;5075219;28;20043;-76
2023/12/20 03:14:10;;;;;;;;;;;;;;;5.85;100.00;100611.13;5075628;28;20066;-75
2023/12/20 03:17:12;;;;;;;1.20;0.40;;;;;;;5.92;100.00;100616.97;5075472;28;20005;-76
2023/12/20 03:20:16;;;;;;;2.80;0.50;;;;;;;6.11;100.00;100612.94;5074322;28;20043;-76
2023/12/20 03:23:19;;;;;;;0.73;0.22;;;;;;;6.06;100.00;100627.78;5075055;28;20178;-75
2023/12/20 03:26:22;;;;;;;0.88;0.30;;;;;;;6.09;100.00;100630.28;5074927;28;20052;-76
2023/12/20 03:29:25;;;;;;;;;;;;;;;6.19;100.00;100626.53;5075373;28;20051;-76
2023/12/20 03:32:28;;;;;;;1.80;0.47;;;;;;;6.19;100.00;100629.13;5074897;28;19927;-75
2023/12/20 03:35:31;;;;;;;;;;;;;;;6.22;100.00;100633.34;5075256;28;20543;-76
2023/12/20 03:38:34;;;;;;;1.52;0.50;;;;;;;6.30;100.00;100641.75;5074623;28;19958;-76
2023/12/20 03:41:37;;;;;;;;;;;;;;;6.35;100.00;100636.38;5074545;28;20063;-76
2023/12/20 03:44:41;;;;;;;2.13;0.90;;;;;;;6.23;100.00;100633.31;5074623;28;19919;-76
2023/12/20 03:47:44;;;;;;;3.72;2.60;;;;;;;6.29;100.00;100640.91;5074377;28;20051;-76
2023/12/20 03:50:47;;;;;;;6.15;3.60;;;;;;;6.16;100.00;100643.94;5074791;28;20051;-76
2023/12/20 03:53:50;;;;;;;;;;;;;;;6.24;100.00;100662.72;5074856;28;20047;-75
2023/12/20 03:56:53;;;;;;;4.25;2.03;;;;;;;6.14;100.00;100669.09;5074648;28;19935;-75
2023/12/20 03:59:56;;;;;;;;;;;;;;;6.25;100.00;100670.47;5074831;28;20065;-76
2023/12/20 04:02:59;;;;;;;8.02;2.15;;;;;;;6.08;100.00;100683.13;5074612;28;19938;-76
2023/12/20 04:06:03;;;;;;;7.68;2.13;;;;;;;6.04;100.00;100673.75;5074398;28;20120;-76
2023/12/20 04:09:05;;;;;;;5.72;2.17;;;;;;;5.79;97.44;100679.63;5073264;28;20170;-76
2023/12/20 04:12:09;;;;;;;10.70;2.08;;;;;;;5.73;97.33;100672.03;5074184;28;20049;-76
2023/12/20 04:15:12;;;;;;;8.57;2.22;;;;;;;5.65;97.27;100681.81;5074086;28;20047;-76
2023/12/20 04:18:15;;;;;;;6.60;1.77;;;;;;;5.54;99.37;100684.69;5073031;28;20467;-76
2023/12/20 04:21:19;;;;;;;;;;;;;;;5.53;98.88;100679.56;5074311;28;20563;-75
2023/12/20 04:24:22;;;;;;;11.40;2.10;;;;;;;5.43;97.69;100678.13;5073738;28;19920;-75
2023/12/20 04:27:25;;;;;;;10.02;2.17;;;;;;;5.48;97.59;100681.44;5072937;28;20039;-76
2023/12/20 04:30:28;;;;;;;6.43;2.08;;;;;;;5.46;99.61;100683.25;5073536;28;20101;-76
2023/12/20 04:33:31;;;;;;;8.35;2.15;;;;;;;5.55;97.83;100678.63;5073701;28;20094;-76
2023/12/20 04:36:35;;;;;;;9.20;2.78;;;;;;;5.61;99.65;100682.78;5073641;28;20089;-76
2023/12/20 04:39:38;;;;;;;10.43;2.33;;;;;;;5.51;99.79;100683.94;5072567;28;20090;-76
2023/12/20 04:42:42;;;;;;;7.53;1.55;;;;;;;5.61;99.91;100693.16;5073755;28;20106;-76
2023/12/20 04:45:45;;;;;;;8.00;1.80;;;;;;;5.61;99.94;100682.78;5073582;28;20047;-76
2023/12/20 04:48:48;;;;;;;;;;;;;;;5.53;100.00;100687.34;5073640;28;20145;-76
2023/12/20 04:51:52;;;;;;;9.88;2.40;;;;;;;5.46;100.00;100693.59;5073346;28;19962;-76
2023/12/20 04:54:55;;;;;;;11.23;1.50;;;;;;;5.44;100.00;100692.78;5073221;28;20160;-75
2023/12/20 04:57:59;;;;;;;8.05;1.40;;;;;;;5.54;100.00;100696.81;5073246;28;20044;-76
2023/12/20 05:01:05;;;;;;;8.75;1.63;;;;;;;5.49;100.00;100698.72;5073161;28;20181;-76
2023/12/20 05:04:08;;;;;;;10.20;1.90;;;;;;;5.49;100.00;100698.72;5073228;28;20135;-76
2023/12/20 05:07:11;;;;;;;7.28;1.40;;;;;;;5.52;99.74;100694.28;5072430;28;20101;-76
2023/12/20 05:10:14;;;;;;;9.45;1.40;;;;;;;5.52;100.00;100703.78;5073273;28;20098;-70
2023/12/20 05:13:18;;;;;;;6.38;2.05;;;;;;;5.41;97.62;100706.69;5072999;28;20044;-75
2023/12/20 05:16:21;;;;;;;8.95;1.90;;;;;;;5.45;98.30;100707.44;5072752;28;20042;-75
2023/12/20 05:19:35;;;;;;;12.88;2.20;;;;;;;5.49;97.96;100703.91;5050630;28;20091;-73
2023/12/20 05:22:38;;;;;;;3.63;1.00;;;;;;;5.29;97.02;100718.25;5050635;28;20094;-73
2023/12/20 05:25:42;;;;;;;10.82;2.28;;;;;;;5.43;98.78;100704.06;5050840;28;20577;-74
2023/12/20 05:28:45;;;;;;;5.25;1.38;;;;;;;5.42;99.40;100717.91;5050256;28;20138;-73
2023/12/20 05:31:48;;;;;;;7.00;1.20;;;;;;;5.24;100.00;100714.09;5050590;28;20190;-74
2023/12/20 05:34:51;;;;;;;;;;;;;;;5.30;100.00;100703.56;5050939;28;20533;-73
2023/12/20 05:37:54;;;;;;;6.95;1.50;;;;;;;5.27;100.00;100709.69;5050482;28;20012;-72
2023/12/20 05:40:58;;;;;;;;;;;;;;;5.12;98.68;100705.75;5050955;28;20130;-73
2023/12/20 05:44:01;;;;;;;4.57;0.88;;;;;;;5.28;98.79;100701.00;5050345;28;20445;-73
2023/12/20 05:47:04;;;;;;;11.63;3.25;;;;;;;5.36;98.37;100693.03;5050187;28;20177;-73
2023/12/20 05:50:09;;;;;;;9.57;2.30;;;;;;;5.30;99.19;100698.38;5062795;28;20055;-73
2023/12/20 05:53:13;;;;;;;8.52;1.40;;;;;;;5.25;100.00;100716.63;5071858;28;20055;-72
2023/12/20 05:56:16;;;;;;;8.60;1.15;;;;;;;5.35;99.89;100710.28;5072567;28;20075;-74
2023/12/20 05:59:20;;;;;;;10.43;1.33;;;;;;;5.34;99.56;100698.22;5072563;28;20145;-73
2023/12/20 06:02:23;;;;;;;;;;;;;;;5.33;100.00;100706.91;5073042;28;20460;-72
2023/12/20 06:05:26;;;;;;;8.50;1.60;;;;;;;5.38;100.00;100703.34;5077530;28;20323;-73
2023/12/20 06:08:29;;;;;;;6.22;1.95;;;;;;;5.22;100.00;100708.94;5075049;28;20050;-73
2023/12/20 06:11:33;;;;;;;6.22;1.23;;;;;;;5.16;100.00;100713.44;5083351;28;20182;-73
2023/12/20 06:14:43;;;;;;;7.72;1.42;;;;;;;5.10;100.00;100704.06;5077978;28;20047;-73
2023/12/20 06:17:46;;;;;;;8.57;1.40;;;;;;;5.21;100.00;100712.44;5077839;28;20520;-72
2023/12/20 06:20:50;;;;;;;6.15;1.88;;;;;;;5.14;100.00;100713.50;5086198;28;20075;-73
2023/12/20 06:23:53;;;;;;;8.77;3.03;;;;;;;5.11;100.00;100718.75;5092437;28;20100;-75
2023/12/20 06:26:56;;;;;;;12.57;2.88;;;;;;;5.33;100.00;100717.28;5092539;28;20043;-75
2023/12/20 06:30:00;;;;;;;10.30;2.72;;;;;;;5.43;99.90;100727.41;5092460;28;20425;-76
2023/12/20 06:33:03;;;;;;;6.53;2.30;;;;;;;5.43;100.00;100717.03;5092780;28;20412;-75
2023/12/20 06:36:06;;;;;;;;;;;;;;;5.43;100.00;100730.00;5079916;28;20059;-76
2023/12/20 06:39:12;;;;;;;6.20;1.63;;;;;;;5.44;100.00;100732.53;5071985;28;20297;-76
2023/12/20 06:42:15;;;;;;;6.78;1.73;;;;;;;5.39;100.00;100728.38;5075746;28;20059;-76
2023/12/20 06:45:18;;;;;;;;;;;;;;;5.38;100.00;100721.50;5076163;28;20056;-76
2023/12/20 06:48:21;;;;;;;7.22;1.67;;;;;;;5.25;100.00;100727.00;5075109;28;20323;-76
2023/12/20 06:51:25;;;;;;;;;;;;;;;5.25;100.00;100726.16;5076030;28;20433;-76
2023/12/20 06:54:28;;;;;;;19.38;7.13;;;;;;;5.23;100.00;100723.63;5075147;28;20415;-76
2023/12/20 06:57:31;;;;;;;12.32;3.63;;;;;;;5.29;100.00;100730.34;5075520;28;20101;-76
2023/12/20 07:00:35;;;;;;;8.20;2.58;;;;;;;5.34;100.00;100731.09;5075238;28;20048;-76
2023/12/20 07:03:39;;;;;;;;;;;;;;;5.35;100.00;100725.84;5076188;28;20047;-76
2023/12/20 07:06:42;;;;;;;13.43;1.90;;;;;;;5.19;100.00;100727.16;5075507;28;19966;-76
2023/12/20 07:09:45;;;;;;;17.90;3.38;;;;;;;5.20;100.00;100728.88;5075345;28;20043;-76
2023/12/20 07:12:49;;;;;;;;;;;;;;;5.22;99.14;100726.25;5075802;28;20044;-76
2023/12/20 07:15:52;;;;;;;6.72;1.48;;;;;;;5.19;94.63;100727.16;5075269;28;19973;-76
2023/12/20 07:18:56;;;;;;;;;;;;;;;5.17;93.46;100723.78;5075562;28;20035;-76
2023/12/20 07:21:59;;;;;;;7.20;1.90;;;;;;;5.18;93.09;100725.47;5075161;28;19969;-76
2023/12/20 07:25:03;;;;;;;7.65;1.85;;;;;;;5.18;94.04;100720.28;5074611;28;20087;-76
2023/12/20 07:28:06;;;;;;;7.30;1.50;;;;;;;5.20;94.09;100722.81;5073686;28;20516;-76
2023/12/20 07:35:29;;;;;;;10.75;2.05;;;;;;;5.24;92.30;100747.81;5073699;28;19923;-76
2023/12/20 07:38:33;;;;;;;6.70;1.40;;;;;;;5.18;93.33;100750.56;5072423;28;20040;-76
2023/12/20 07:41:36;;;;;;;12.30;1.85;;;;;;;5.30;93.58;100752.81;5073386;28;20124;-76
2023/12/20 07:44:40;;;;;;;7.60;1.50;;;;;;;5.21;92.24;100753.91;5073330;28;20055;-76
2023/12/20 07:47:43;;;;;;;8.30;1.85;;;;;;;5.21;92.21;100751.31;5072446;28;20381;-77
2023/12/20 07:50:46;;;;;;;9.85;2.75;;;;;;;5.28;91.39;100745.06;5071290;28;20071;-76
2023/12/20 07:53:50;;;;;;;10.25;2.30;;;;;;;5.40;91.67;100750.84;5072503;28;20469;-76
2023/12/20 07:56:53;;;;;;;9.23;1.48;;;;;;;5.37;90.65;100756.94;5073285;28;20547;-76
2023/12/20 08:00:23;;;;;;;7.55;1.80;;;;;;;5.43;92.45;100767.16;5073365;28;20044;-76
2023/12/20 08:03:42;;;;;;;10.40;2.35;;;;;;;5.27;90.89;100761.53;5073756;28;20496;-74
2023/12/20 08:06:46;;;;;;;10.35;2.20;;;;;;;5.35;90.80;100750.94;5072715;28;20043;-75
2023/12/20 08:09:51;;;;;;;10.98;2.28;;;;;;;5.31;90.59;100757.94;5072766;28;20052;-75
2023/12/20 08:12:58;;;;;;;9.45;2.00;;;;;;;5.27;91.75;100766.72;5073168;28;20079;-76
2023/12/20 08:16:02;;;;;;;7.28;1.42;;;;;;;5.35;90.93;100769.09;5072909;28;20415;-76
2023/12/20 08:19:06;;;;;;;9.00;2.55;;;;;;;5.36;91.24;100770.81;5072471;28;20039;-76
2023/12/20 08:22:41;;;;;;;9.55;2.13;;;;;;;5.29;90.27;100780.47;5073194;28;20102;-74
2023/12/20 08:25:49;;;;;;;9.27;1.70;;;;;;;5.32;91.05;100775.19;5072581;28;20055;-66
2023/12/20 08:29:02;;;;;;;7.90;2.30;;;;;;;5.40;91.21;100779.34;5072530;28;20067;-76
2023/12/20 08:32:09;;;;;;;13.25;2.47;;;;;;;5.44;90.68;100770.59;5072676;28;20043;-81
2023/12/20 08:35:15;;;;;;;10.40;2.03;;;;;;;5.41;91.02;100774.13;5072877;28;20467;-81
2023/12/20 08:38:18;;;;;;;;;;;;;;;5.34;91.11;100776.03;5072724;28;20541;-79
2023/12/20 08:41:21;;;;;;;9.00;2.42;;;;;;;5.43;91.04;100781.88;5072814;28;19939;-79
2023/12/20 08:44:25;;;;;;;12.00;2.55;;;;;;;5.48;90.74;100785.16;5072490;28;20047;-80
2023/12/20 08:47:28;;;;;;;;;;;;;;;5.58;89.82;100790.09;5072815;28;20611;-75
2023/12/20 08:50:32;;;;;;;6.50;1.85;;;;;;;5.50;89.42;100783.41;5071995;28;19923;-76
2023/12/20 08:53:35;;;;;;;14.85;2.25;;;;;;;5.46;91.01;100784.38;5071216;28;20047;-75
2023/12/20 08:57:31;;;;;;;10.13;2.30;;;;;;;5.52;90.33;100782.47;5072563;28;20480;-77
2023/12/20 09:00:35;;;;;;;9.75;2.22;;;;;;;5.51;90.43;100780.75;5072129;28;20184;-77
2023/12/20 09:03:39;;;;;;;;;;;;;;;5.65;90.02;100771.72;5070473;28;20097;-75
2023/12/20 09:06:42;;;;;;;;;;;;;;;5.59;89.74;100772.78;5072482;28;20007;-75
2023/12/20 09:09:45;;;;;;;12.85;2.42;;;;;;;5.58;89.99;100771.06;5072094;28;19927;-75
2023/12/20 09:12:56;;;;;;;;;;;;;;;5.59;89.76;100784.00;5072447;28;20189;-76
2023/12/20 09:15:59;;;;;;;9.77;3.72;;;;;;;5.63;90.17;100782.16;5072411;28;19922;-76
2023/12/20 09:19:03;;;;;;;13.40;2.40;;;;;;;5.75;90.30;100783.56;5071891;28;20039;-77
2023/12/20 09:22:08;;;;;;;9.07;2.20;;;;;;;5.76;89.88;100775.72;5071913;28;20044;-77
2023/12/20 09:25:13;;;;;;;17.58;4.65;;;;;;;5.79;89.56;100780.84;5071836;28;20051;-76
2023/12/20 09:28:16;;;;;;;10.50;3.05;;;;;;;5.84;88.71;100783.31;5071742;28;20051;-76
2023/12/20 09:31:19;;;;;;;;;;;;;;;5.87;89.00;100784.94;5072240;28;20464;-77
2023/12/20 09:34:24;;;;;;;8.73;2.40;;;;;;;5.86;89.13;100785.84;5074532;28;19979;-77
2023/12/20 09:37:28;;;;;;;9.73;3.30;;;;;;;5.94;88.93;100789.13;5091966;28;20043;-74
2023/12/20 09:40:33;;;;;;;14.52;4.07;;;;;;;5.95;89.11;100783.88;5092042;28;20510;-75
2023/12/20 09:43:37;;;;;;;13.93;3.60;;;;;;;6.01;88.62;100782.84;5092201;28;20499;-76
2023/12/20 09:46:45;;;;;;;14.70;6.20;;;;;;;6.12;88.61;100780.78;5091609;28;20565;-77
2023/12/20 09:49:50;;;;;;;17.13;6.97;;;;;;;6.14;89.00;100791.97;5091761;28;20518;-76
2023/12/20 09:52:58;;;;;;;12.75;2.63;;;;;;;6.02;88.30;100792.34;5091858;28;20131;-77
2023/12/20 09:56:03;;;;;;;16.70;3.55;;;;;;;6.00;88.63;100789.78;5091822;28;20039;-77
2023/12/20 09:59:06;;;;;;;14.38;3.17;;;;;;;5.97;88.19;100778.66;5090915;28;20453;-77
2023/12/20 10:02:16;;;;;;;10.38;2.40;;;;;;;5.98;88.42;100775.16;5091693;28;20050;-77
2023/12/20 10:05:31;;;;;;;12.55;2.45;;;;;;;5.96;88.37;100775.19;5091789;28;20466;-78
2023/12/20 10:08:34;;;;;;;12.52;4.00;;;;;;;6.06;88.97;100770.56;5091558;28;20040;-75
2023/12/20 10:11:38;;;;;;;7.43;2.17;;;;;;;6.16;87.24;100769.41;5092073;28;20051;-76
2023/12/20 10:14:45;;;;;;;11.68;2.28;;;;;;;6.16;87.02;100751.25;5093394;28;20062;-77
2023/12/20 10:17:49;;;;;;;9.23;1.88;;;;;;;6.29;86.26;100739.59;5095666;28;20050;-77
2023/12/20 10:20:53;;;;;;;13.63;3.03;;;;;;;6.33;85.77;100739.50;5095697;28;20622;-77
2023/12/20 10:23:57;;;;;;;10.88;2.10;;;;;;;6.44;85.09;100748.63;5095865;28;20411;-77
2023/12/20 10:27:05;;;;;;;10.02;2.60;;;;;;;6.45;85.14;100746.91;5095604;28;20062;-77
2023/12/20 10:30:10;;;;;;;11.07;2.70;;;;;;;6.39;85.36;100739.31;5095485;28;20354;-76
2023/12/20 10:33:13;;;;;;;10.35;2.78;;;;;;;6.43;84.58;100741.75;5095516;28;20097;-77
2023/12/20 10:36:16;;;;;;;;;;;;;;;6.41;85.00;100740.09;5095812;28;20043;-77
2023/12/20 10:39:21;;;;;;;11.85;2.15;;;;;;;6.36;84.17;100742.00;5094072;28;19972;-77
2023/12/20 10:42:29;;;;;;;12.20;2.53;;;;;;;6.45;84.73;100741.72;5094050;28;20054;-76
2023/12/20 10:45:33;;;;;;;10.45;2.58;;;;;;;6.46;84.95;100743.41;5095026;28;20155;-77
2023/12/20 10:48:39;;;;;;;19.58;6.80;;;;;;;6.39;85.03;100736.69;5094822;28;20109;-77
2023/12/20 10:51:42;;;;;;;8.48;2.63;;;;;;;6.46;84.17;100726.06;5095165;28;20047;-75
2023/12/20 10:54:46;;;;;;;13.32;2.38;;;;;;;6.40;84.01;100733.19;5094388;28;20051;-77
2023/12/20 10:58:00;;;;;;;14.23;2.20;;;;;;;6.34;82.96;100735.97;5095233;28;20059;-73
2023/12/20 11:01:04;;;;;;;10.63;3.13;;;;;;;6.36;83.50;100734.19;5094966;28;20043;-76
2023/12/20 11:04:10;;;;;;;19.80;3.55;;;;;;;6.32;82.54;100727.38;5094983;28;20089;-76
2023/12/20 11:07:21;;;;;;;6.70;1.65;;;;;;;6.41;83.26;100722.75;5095028;28;20181;-76
2023/12/20 11:10:52;;;;;;;10.63;3.40;;;;;;;6.33;82.83;100723.91;5088761;28;20090;-79
2023/12/20 11:14:05;;;;;;;10.95;2.75;;;;;;;6.40;82.43;100710.66;5094900;28;20047;-78
2023/12/20 11:17:09;;;;;;;;;;;;;;;6.43;82.40;100714.91;5096444;28;20109;-78
2023/12/20 11:20:13;;;;;;;9.45;2.40;;;;;;;6.33;81.74;100719.56;5095533;28;19962;-78
2023/12/20 11:23:21;;;;;;;7.72;2.38;;;;;;;6.37;81.34;100704.72;5095446;28;20512;-77
2023/12/20 11:26:31;;;;;;;10.18;2.33;;;;;;;6.35;80.61;100706.50;5093361;28;20046;-75
2023/12/20 11:29:35;;;;;;;12.85;2.42;;;;;;;6.40;81.12;100715.84;5094274;28;20090;-77
2023/12/20 11:32:40;;;;;;;10.05;2.03;;;;;;;6.31;80.57;100704.91;5095397;28;20082;-78
2023/12/20 11:35:46;;;;;;;8.50;2.00;;;;;;;6.40;80.91;100712.41;5094712;28;20050;-77
2023/12/20 11:38:59;;;;;;;9.35;2.80;;;;;;;6.45;81.37;100697.56;5093335;28;20128;-76
2023/12/20 11:42:06;;;;;;;12.27;2.45;;;;;;;6.46;80.95;100684.50;5094361;28;20523;-76
2023/12/20 11:45:21;;;;;;;8.63;2.53;;;;;;;6.58;81.47;100685.84;5094060;28;20043;-78
2023/12/20 11:48:25;;;;;;;9.23;2.03;;;;;;;6.53;81.77;100690.34;5093744;28;20059;-75
2023/12/20 11:55:37;;;;;;;10.57;2.28;;;;;;;6.35;82.29;100684.00;5092597;28;20461;-79
2023/12/20 11:58:41;;;;;;;7.13;2.55;;;;;;;6.35;82.54;100690.94;5089365;28;20551;-78
2023/12/20 12:01:49;;;;;;;12.63;3.05;;;;;;;6.27;84.36;100710.19;5084032;28;20051;-78
2023/12/20 12:04:52;;;;;;;14.15;3.63;;;;;;;6.22;84.50;100700.84;5084459;28;20515;-78
2023/12/20 12:07:56;;;;;;;;;;;;;;;6.23;85.14;100703.41;5093229;28;20046;-78
2023/12/20 12:10:59;;;;;;;12.80;4.63;;;;;;;6.18;85.92;100701.84;5093180;28;19988;-78
2023/12/20 12:14:03;;;;;;;8.82;1.75;;;;;;;6.11;85.61;100703.78;5109799;28;20158;-79
2023/12/20 12:17:15;;;;;;;10.25;2.65;;;;;;;6.13;87.26;100712.41;5105989;28;20405;-78
2023/12/20 12:20:20;;;;;;;12.23;2.47;;;;;;;6.06;85.56;100703.06;5092814;28;20051;-78
2023/12/20 12:23:24;;;;;;;12.15;3.20;;;;;;;5.98;87.81;100707.66;5092883;28;20519;-78
2023/12/20 12:26:30;;;;;;;8.73;3.13;;;;;;;6.14;88.89;100695.91;5092583;28;20063;-78
2023/12/20 12:29:35;;;;;;;12.07;2.95;;;;;;;6.07;89.23;100684.03;5092690;28;20504;-79
2023/12/20 12:32:38;;;;;;;7.72;2.50;;;;;;;6.00;89.15;100682.53;5092848;28;20050;-78
2023/12/20 12:35:41;;;;;;;;;;;;;;;6.03;90.67;100674.63;5093148;28;20128;-78
2023/12/20 12:38:45;;;;;;;13.65;2.58;;;;;;;6.02;89.43;100681.56;5091701;28;19958;-78
2023/12/20 12:41:48;;;;;;;11.38;2.78;;;;;;;6.07;89.72;100670.22;5092410;28;20513;-78
2023/12/20 12:44:51;;;;;;;9.70;2.85;;;;;;;6.17;89.74;100666.41;5092593;28;20464;-78
2023/12/20 12:47:55;;;;;;;;;;;;;;;6.10;87.46;100655.38;5092448;28;20828;-78
2023/12/20 12:50:59;;;;;;;10.88;2.53;;;;;;;6.17;87.79;100656.03;5092334;28;19918;-78
2023/12/20 12:54:02;;;;;;;9.63;2.28;;;;;;;6.09;87.49;100647.63;5092396;28;20042;-78
2023/12/20 12:57:05;;;;;;;10.40;2.17;;;;;;;6.11;87.69;100641.50;5091952;28;20042;-78
2023/12/20 13:00:09;;;;;;;15.20;4.93;;;;;;;6.17;88.31;100646.50;5092476;28;20076;-78
2023/12/20 13:03:12;;;;;;;12.30;2.83;;;;;;;6.24;89.51;100635.00;5091862;28;20055;-78
2023/12/20 13:06:16;;;;;;;10.65;2.90;;;;;;;6.28;92.09;100636.59;5092008;28;20047;-78
2023/12/20 13:09:19;;;;;;;;;;;;;;;6.12;90.43;100625.00;5092133;28;20046;-78
2023/12/20 13:12:22;;;;;;;13.25;5.13;;;;;;;6.23;89.46;100622.94;5092122;28;19919;-78
2023/12/20 13:15:26;;;;;;;;;;;;;;;6.12;89.86;100626.75;5092404;28;20042;-78
2023/12/20 13:18:29;;;;;;;8.50;2.42;;;;;;;6.05;90.04;100615.72;5086057;28;20002;-78
2023/12/20 13:21:33;;;;;;;12.45;2.50;;;;;;;6.18;88.86;100606.63;5092012;28;20392;-78
2023/12/20 13:24:36;;;;;;;10.90;2.17;;;;;;;6.18;90.17;100606.63;5091865;28;20051;-78
2023/12/20 13:27:40;;;;;;;;;;;;;;;6.22;90.74;100597.88;5091928;28;20115;-78
2023/12/20 13:30:44;;;;;;;9.25;1.90;;;;;;;6.14;89.43;100594.66;5091978;28;19923;-78
2023/12/20 13:33:47;;;;;;;12.43;3.00;;;;;;;6.11;88.73;100599.94;5091630;28;20123;-78
2023/12/20 13:36:51;;;;;;;11.25;2.35;;;;;;;6.23;86.17;100583.97;5091866;28;20093;-78
2023/12/20 13:39:54;;;;;;;7.78;2.53;;;;;;;6.27;87.22;100574.34;5091931;28;20047;-78
2023/12/20 13:42:57;;;;;;;11.25;3.50;;;;;;;6.43;88.90;100585.06;5091491;28;20525;-78
2023/12/20 13:46:01;;;;;;;;;;;;;;;6.36;87.09;100578.38;5092196;28;20101;-78
2023/12/20 13:49:05;;;;;;;11.00;3.45;;;;;;;6.43;85.98;100577.25;5090811;28;19922;-78
2023/12/20 13:52:08;;;;;;;9.65;2.08;;;;;;;6.50;85.45;100573.53;5079348;28;20063;-79
2023/12/20 13:55:12;;;;;;;9.38;1.83;;;;;;;6.44;85.42;100576.34;5091858;28;20074;-79
2023/12/20 13:58:15;;;;;;;14.15;2.30;;;;;;;6.50;85.55;100560.56;5090287;28;20047;-76
2023/12/20 14:01:18;;;;;;;;;;;;;;;6.57;84.77;100569.81;5091840;28;20105;-76
2023/12/20 14:04:22;;;;;;;9.70;2.25;;;;;;;6.57;83.89;100550.78;5091314;28;19919;-77
2023/12/20 14:07:25;;;;;;;8.93;3.35;;;;;;;6.69;84.24;100539.97;5091463;28;20565;-77
2023/12/20 14:10:29;;;;;;;13.85;4.38;;;;;;;6.57;84.70;100548.19;5091288;28;20468;-77
2023/12/20 14:13:33;;;;;;;20.90;11.55;;;;;;;6.59;nan;100555.03;5091295;28;20456;-77
2023/12/20 14:16:37;;;;;;;;;;;;;;;6.63;83.44;100543.63;5091618;28;20046;-76
2023/12/20 14:19:41;;;;;;;9.93;3.53;;;;;;;6.59;84.11;100547.25;5091282;28;20442;-77
2023/12/20 14:22:46;;;;;;;14.52;3.35;;;;;;;6.65;83.82;100546.19;5091106;28;20594;-76
2023/12/20 14:25:49;;;;;;;12.02;2.47;;;;;;;6.61;84.44;100548.03;5091038;28;20233;-76
2023/12/20 14:28:53;;;;;;;;;;;;;;;6.63;84.14;100545.38;5091548;28;20098;-77
2023/12/20 14:31:59;;;;;;;8.02;2.53;;;;;;;6.65;84.57;100549.63;5091106;28;19962;-77
2023/12/20 14:35:08;;;;;;;11.98;2.88;;;;;;;6.67;84.69;100542.63;5091651;28;20051;-77
2023/12/20 14:38:14;;;;;;;8.30;1.88;;;;;;;6.57;84.37;100530.84;5090617;28;20109;-77
2023/12/20 14:41:20;;;;;;;5.88;1.60;;;;;;;6.57;84.49;100528.25;5091416;28;20059;-78
2023/12/20 14:44:24;;;;;;;6.90;1.77;;;;;;;6.56;86.15;100512.72;5089364;28;20042;-78